sensor_id;sensor_type;location;lat;lon;timestamp;P1;durP1;ratioP1;P2;durP2;ratioP2
1837;SDS011;918;50.796;6.772;2023-03-29T00:01:32;4.03;;;3.60;;
1837;SDS011;918;50.796;6.772;2023-03-29T00:03:57;4.23;;;3.50;;
1837;SDS011;918;50.796;6.772;2023-03-29T00:06:24;4.07;;;3.77;;
1837;SDS011;918;50.796;6.772;2023-03-29T00:08:49;5.03;;;3.70;;
1837;SDS011;918;50.796;6.772;2023-03-29T00:11:15;4.20;;;3.90;;
1837;SDS011;918;50.796;6.772;2023-03-29T00:13:41;4.87;;;3.30;;
1837;SDS011;918;50.796;6.772;2023-03-29T00:16:06;3.37;;;3.10;;
1837;SDS011;918;50.796;6.772;2023-03-29T00:18:32;4.00;;;3.30;;
1837;SDS011;918;50.796;6.772;2023-03-29T00:20:58;3.47;;;3.17;;
1837;SDS011;918;50.796;6.772;2023-03-29T00:23:24;3.80;;;3.50;;
1837;SDS011;918;50.796;6.772;2023-03-29T00:25:51;4.30;;;3.07;;
1837;SDS011;918;50.796;6.772;2023-03-29T00:28:17;4.13;;;3.57;;
1837;SDS011;918;50.796;6.772;2023-03-29T00:30:42;5.57;;;3.70;;
1837;SDS011;918;50.796;6.772;2023-03-29T00:33:08;4.00;;;3.30;;
1837;SDS011;918;50.796;6.772;2023-03-29T00:35:33;3.67;;;3.10;;
1837;SDS011;918;50.796;6.772;2023-03-29T00:37:58;3.60;;;3.30;;
1837;SDS011;918;50.796;6.772;2023-03-29T00:40:23;4.03;;;3.73;;
1837;SDS011;918;50.796;6.772;2023-03-29T00:42:49;3.80;;;3.50;;
1837;SDS011;918;50.796;6.772;2023-03-29T00:45:16;3.37;;;3.07;;
1837;SDS011;918;50.796;6.772;2023-03-29T00:47:45;3.73;;;3.33;;
1837;SDS011;918;50.796;6.772;2023-03-29T00:50:14;3.37;;;3.10;;
1837;SDS011;918;50.796;6.772;2023-03-29T00:52:43;3.10;;;2.60;;
1837;SDS011;918;50.796;6.772;2023-03-29T00:55:13;4.50;;;3.60;;
1837;SDS011;918;50.796;6.772;2023-03-29T00:57:40;3.97;;;3.60;;
1837;SDS011;918;50.796;6.772;2023-03-29T01:00:11;4.10;;;3.80;;
1837;SDS011;918;50.796;6.772;2023-03-29T01:02:38;3.30;;;3.00;;
1837;SDS011;918;50.796;6.772;2023-03-29T01:05:05;7.00;;;3.73;;
1837;SDS011;918;50.796;6.772;2023-03-29T01:10:07;3.50;;;3.20;;
1837;SDS011;918;50.796;6.772;2023-03-29T01:12:38;5.17;;;3.20;;
1837;SDS011;918;50.796;6.772;2023-03-29T01:15:16;3.70;;;3.40;;
1837;SDS011;918;50.796;6.772;2023-03-29T01:17:44;3.93;;;3.63;;
1837;SDS011;918;50.796;6.772;2023-03-29T01:20:20;3.60;;;3.07;;
1837;SDS011;918;50.796;6.772;2023-03-29T01:28:18;3.43;;;3.13;;
1837;SDS011;918;50.796;6.772;2023-03-29T01:31:01;4.23;;;3.37;;
1837;SDS011;918;50.796;6.772;2023-03-29T01:33:32;3.77;;;3.40;;
1837;SDS011;918;50.796;6.772;2023-03-29T01:36:17;3.80;;;3.50;;
1837;SDS011;918;50.796;6.772;2023-03-29T01:38:49;3.40;;;2.77;;
1837;SDS011;918;50.796;6.772;2023-03-29T01:41:18;3.80;;;3.50;;
1837;SDS011;918;50.796;6.772;2023-03-29T01:43:46;3.07;;;2.87;;
1837;SDS011;918;50.796;6.772;2023-03-29T01:49:05;4.37;;;3.70;;
1837;SDS011;918;50.796;6.772;2023-03-29T01:51:39;3.10;;;2.87;;
1837;SDS011;918;50.796;6.772;2023-03-29T01:54:08;3.57;;;2.80;;
1837;SDS011;918;50.796;6.772;2023-03-29T01:56:37;3.77;;;2.93;;
1837;SDS011;918;50.796;6.772;2023-03-29T01:59:05;5.20;;;3.10;;
1837;SDS011;918;50.796;6.772;2023-03-29T02:01:33;2.90;;;2.70;;
1837;SDS011;918;50.796;6.772;2023-03-29T02:04:05;2.90;;;2.70;;
1837;SDS011;918;50.796;6.772;2023-03-29T02:06:33;2.83;;;2.50;;
1837;SDS011;918;50.796;6.772;2023-03-29T02:08:59;2.80;;;2.50;;
1837;SDS011;918;50.796;6.772;2023-03-29T02:11:25;3.03;;;2.83;;
1837;SDS011;918;50.796;6.772;2023-03-29T02:13:56;3.23;;;3.00;;
1837;SDS011;918;50.796;6.772;2023-03-29T02:16:22;3.50;;;3.20;;
1837;SDS011;918;50.796;6.772;2023-03-29T02:18:47;3.10;;;2.70;;
1837;SDS011;918;50.796;6.772;2023-03-29T02:21:16;3.20;;;3.00;;
1837;SDS011;918;50.796;6.772;2023-03-29T02:23:45;8.00;;;3.33;;
1837;SDS011;918;50.796;6.772;2023-03-29T02:26:13;4.00;;;3.07;;
1837;SDS011;918;50.796;6.772;2023-03-29T02:28:39;3.57;;;3.27;;
1837;SDS011;918;50.796;6.772;2023-03-29T02:34:01;2.47;;;2.37;;
1837;SDS011;918;50.796;6.772;2023-03-29T02:36:39;2.60;;;2.33;;
1837;SDS011;918;50.796;6.772;2023-03-29T02:39:16;3.17;;;2.97;;
1837;SDS011;918;50.796;6.772;2023-03-29T02:41:42;3.57;;;3.03;;
1837;SDS011;918;50.796;6.772;2023-03-29T02:44:09;4.10;;;2.77;;
1837;SDS011;918;50.796;6.772;2023-03-29T02:46:38;3.30;;;2.90;;
1837;SDS011;918;50.796;6.772;2023-03-29T02:49:06;4.50;;;3.30;;
1837;SDS011;918;50.796;6.772;2023-03-29T02:51:33;3.43;;;2.63;;
1837;SDS011;918;50.796;6.772;2023-03-29T02:54:00;3.27;;;3.07;;
1837;SDS011;918;50.796;6.772;2023-03-29T02:56:28;2.97;;;2.33;;
1837;SDS011;918;50.796;6.772;2023-03-29T02:58:54;3.50;;;2.60;;
1837;SDS011;918;50.796;6.772;2023-03-29T03:01:19;2.90;;;2.70;;
1837;SDS011;918;50.796;6.772;2023-03-29T03:03:45;3.10;;;2.90;;
1837;SDS011;918;50.796;6.772;2023-03-29T03:06:11;3.30;;;3.00;;
1837;SDS011;918;50.796;6.772;2023-03-29T03:08:37;3.50;;;3.00;;
1837;SDS011;918;50.796;6.772;2023-03-29T03:11:02;3.43;;;3.10;;
1837;SDS011;918;50.796;6.772;2023-03-29T03:13:29;3.23;;;2.93;;
1837;SDS011;918;50.796;6.772;2023-03-29T03:15:54;4.20;;;2.80;;
1837;SDS011;918;50.796;6.772;2023-03-29T03:18:20;4.30;;;3.40;;
1837;SDS011;918;50.796;6.772;2023-03-29T03:20:55;3.40;;;3.10;;
1837;SDS011;918;50.796;6.772;2023-03-29T03:23:25;3.17;;;2.97;;
1837;SDS011;918;50.796;6.772;2023-03-29T03:25:51;3.23;;;2.90;;
1837;SDS011;918;50.796;6.772;2023-03-29T03:28:16;3.13;;;2.80;;
1837;SDS011;918;50.796;6.772;2023-03-29T03:30:42;3.60;;;3.30;;
1837;SDS011;918;50.796;6.772;2023-03-29T03:33:07;4.60;;;3.37;;
1837;SDS011;918;50.796;6.772;2023-03-29T03:35:33;3.60;;;3.30;;
1837;SDS011;918;50.796;6.772;2023-03-29T03:37:58;3.70;;;3.50;;
1837;SDS011;918;50.796;6.772;2023-03-29T03:40:24;3.73;;;2.97;;
1837;SDS011;918;50.796;6.772;2023-03-29T03:42:50;5.43;;;3.67;;
1837;SDS011;918;50.796;6.772;2023-03-29T03:45:15;4.50;;;3.00;;
1837;SDS011;918;50.796;6.772;2023-03-29T03:47:41;3.07;;;2.87;;
1837;SDS011;918;50.796;6.772;2023-03-29T03:50:06;4.90;;;2.90;;
1837;SDS011;918;50.796;6.772;2023-03-29T03:52:33;3.47;;;2.87;;
1837;SDS011;918;50.796;6.772;2023-03-29T03:54:58;4.20;;;3.10;;
1837;SDS011;918;50.796;6.772;2023-03-29T03:57:23;3.83;;;3.50;;
1837;SDS011;918;50.796;6.772;2023-03-29T03:59:49;3.90;;;3.23;;
1837;SDS011;918;50.796;6.772;2023-03-29T04:02:14;4.90;;;3.10;;
1837;SDS011;918;50.796;6.772;2023-03-29T04:04:40;3.23;;;3.00;;
1837;SDS011;918;50.796;6.772;2023-03-29T04:07:06;4.70;;;3.37;;
1837;SDS011;918;50.796;6.772;2023-03-29T04:09:32;3.23;;;3.00;;
1837;SDS011;918;50.796;6.772;2023-03-29T04:11:58;3.40;;;2.90;;
1837;SDS011;918;50.796;6.772;2023-03-29T04:14:24;3.20;;;2.90;;
1837;SDS011;918;50.796;6.772;2023-03-29T04:16:51;3.53;;;3.10;;
1837;SDS011;918;50.796;6.772;2023-03-29T04:19:16;3.20;;;3.00;;
1837;SDS011;918;50.796;6.772;2023-03-29T04:21:42;4.23;;;3.10;;
1837;SDS011;918;50.796;6.772;2023-03-29T04:24:09;2.87;;;2.63;;
1837;SDS011;918;50.796;6.772;2023-03-29T04:26:35;3.00;;;2.70;;
1837;SDS011;918;50.796;6.772;2023-03-29T04:29:00;4.30;;;2.93;;
1837;SDS011;918;50.796;6.772;2023-03-29T04:31:26;3.63;;;3.20;;
1837;SDS011;918;50.796;6.772;2023-03-29T04:33:51;4.00;;;3.37;;
1837;SDS011;918;50.796;6.772;2023-03-29T04:36:17;5.37;;;4.00;;
1837;SDS011;918;50.796;6.772;2023-03-29T04:38:42;3.63;;;3.10;;
1837;SDS011;918;50.796;6.772;2023-03-29T04:41:07;3.50;;;3.20;;
1837;SDS011;918;50.796;6.772;2023-03-29T04:43:33;5.50;;;3.27;;
1837;SDS011;918;50.796;6.772;2023-03-29T04:45:59;3.43;;;3.13;;
1837;SDS011;918;50.796;6.772;2023-03-29T04:48:24;3.60;;;3.30;;
1837;SDS011;918;50.796;6.772;2023-03-29T04:50:50;3.70;;;3.40;;
1837;SDS011;918;50.796;6.772;2023-03-29T04:53:18;4.17;;;3.70;;
1837;SDS011;918;50.796;6.772;2023-03-29T04:55:45;6.63;;;3.60;;
1837;SDS011;918;50.796;6.772;2023-03-29T04:58:11;3.30;;;3.00;;
1837;SDS011;918;50.796;6.772;2023-03-29T05:00:37;4.57;;;3.90;;
1837;SDS011;918;50.796;6.772;2023-03-29T05:03:02;4.93;;;3.57;;
1837;SDS011;918;50.796;6.772;2023-03-29T05:05:28;4.07;;;3.60;;
1837;SDS011;918;50.796;6.772;2023-03-29T05:07:54;3.67;;;3.30;;
1837;SDS011;918;50.796;6.772;2023-03-29T05:10:19;3.73;;;3.53;;
1837;SDS011;918;50.796;6.772;2023-03-29T05:12:45;4.93;;;4.27;;
1837;SDS011;918;50.796;6.772;2023-03-29T05:15:10;6.77;;;4.30;;
1837;SDS011;918;50.796;6.772;2023-03-29T05:17:36;3.70;;;3.40;;
1837;SDS011;918;50.796;6.772;2023-03-29T05:20:01;3.57;;;3.10;;
1837;SDS011;918;50.796;6.772;2023-03-29T05:22:33;3.17;;;2.97;;
1837;SDS011;918;50.796;6.772;2023-03-29T05:24:58;4.07;;;3.50;;
1837;SDS011;918;50.796;6.772;2023-03-29T05:27:23;3.60;;;3.03;;
1837;SDS011;918;50.796;6.772;2023-03-29T05:29:49;5.67;;;3.50;;
1837;SDS011;918;50.796;6.772;2023-03-29T05:32:14;4.13;;;3.50;;
1837;SDS011;918;50.796;6.772;2023-03-29T05:34:39;3.90;;;3.47;;
1837;SDS011;918;50.796;6.772;2023-03-29T05:37:05;3.70;;;3.40;;
1837;SDS011;918;50.796;6.772;2023-03-29T05:39:30;4.90;;;3.60;;
1837;SDS011;918;50.796;6.772;2023-03-29T05:41:57;4.03;;;3.63;;
1837;SDS011;918;50.796;6.772;2023-03-29T05:44:23;3.83;;;3.53;;
1837;SDS011;918;50.796;6.772;2023-03-29T05:46:48;4.20;;;3.43;;
1837;SDS011;918;50.796;6.772;2023-03-29T05:49:13;4.00;;;3.30;;
1837;SDS011;918;50.796;6.772;2023-03-29T05:51:38;4.17;;;3.60;;
1837;SDS011;918;50.796;6.772;2023-03-29T05:54:05;4.07;;;3.70;;
1837;SDS011;918;50.796;6.772;2023-03-29T05:56:31;5.50;;;4.23;;
1837;SDS011;918;50.796;6.772;2023-03-29T05:58:56;5.37;;;4.70;;
1837;SDS011;918;50.796;6.772;2023-03-29T06:01:22;4.67;;;4.20;;
1837;SDS011;918;50.796;6.772;2023-03-29T06:03:49;4.60;;;4.23;;
1837;SDS011;918;50.796;6.772;2023-03-29T06:06:15;4.13;;;3.83;;
1837;SDS011;918;50.796;6.772;2023-03-29T06:08:40;4.10;;;3.80;;
1837;SDS011;918;50.796;6.772;2023-03-29T06:11:06;3.70;;;3.40;;
1837;SDS011;918;50.796;6.772;2023-03-29T06:13:34;4.10;;;3.80;;
1837;SDS011;918;50.796;6.772;2023-03-29T06:16:01;3.70;;;3.40;;
1837;SDS011;918;50.796;6.772;2023-03-29T06:18:28;3.43;;;3.13;;
1837;SDS011;918;50.796;6.772;2023-03-29T06:20:53;4.03;;;3.73;;
1837;SDS011;918;50.796;6.772;2023-03-29T06:23:19;4.93;;;3.30;;
1837;SDS011;918;50.796;6.772;2023-03-29T06:25:45;3.60;;;3.30;;
1837;SDS011;918;50.796;6.772;2023-03-29T06:28:11;5.37;;;3.97;;
1837;SDS011;918;50.796;6.772;2023-03-29T06:30:38;3.70;;;3.40;;
1837;SDS011;918;50.796;6.772;2023-03-29T06:33:03;4.90;;;2.97;;
1837;SDS011;918;50.796;6.772;2023-03-29T06:35:32;3.70;;;3.40;;
1837;SDS011;918;50.796;6.772;2023-03-29T06:37:58;3.87;;;3.57;;
1837;SDS011;918;50.796;6.772;2023-03-29T06:40:24;5.73;;;3.73;;
1837;SDS011;918;50.796;6.772;2023-03-29T06:42:49;3.77;;;3.47;;
1837;SDS011;918;50.796;6.772;2023-03-29T06:45:21;4.03;;;3.63;;
1837;SDS011;918;50.796;6.772;2023-03-29T06:47:47;4.63;;;3.57;;
1837;SDS011;918;50.796;6.772;2023-03-29T06:50:12;4.07;;;3.47;;
1837;SDS011;918;50.796;6.772;2023-03-29T06:52:38;3.33;;;3.13;;
1837;SDS011;918;50.796;6.772;2023-03-29T06:55:03;3.93;;;3.60;;
1837;SDS011;918;50.796;6.772;2023-03-29T06:57:31;3.30;;;3.00;;
1837;SDS011;918;50.796;6.772;2023-03-29T06:59:57;3.80;;;3.50;;
1837;SDS011;918;50.796;6.772;2023-03-29T07:02:23;5.60;;;3.40;;
1837;SDS011;918;50.796;6.772;2023-03-29T07:04:48;4.40;;;3.53;;
1837;SDS011;918;50.796;6.772;2023-03-29T07:07:13;4.40;;;3.40;;
1837;SDS011;918;50.796;6.772;2023-03-29T07:09:46;3.90;;;3.50;;
1837;SDS011;918;50.796;6.772;2023-03-29T07:12:19;6.20;;;4.10;;
1837;SDS011;918;50.796;6.772;2023-03-29T07:14:46;3.77;;;3.40;;
1837;SDS011;918;50.796;6.772;2023-03-29T07:17:11;4.40;;;4.10;;
1837;SDS011;918;50.796;6.772;2023-03-29T07:19:37;5.77;;;3.50;;
1837;SDS011;918;50.796;6.772;2023-03-29T07:22:03;4.03;;;3.73;;
1837;SDS011;918;50.796;6.772;2023-03-29T07:24:28;4.80;;;3.37;;
1837;SDS011;918;50.796;6.772;2023-03-29T07:26:53;4.07;;;3.67;;
1837;SDS011;918;50.796;6.772;2023-03-29T07:29:19;4.37;;;3.67;;
1837;SDS011;918;50.796;6.772;2023-03-29T07:31:44;3.70;;;2.90;;
1837;SDS011;918;50.796;6.772;2023-03-29T07:34:10;3.37;;;3.07;;
1837;SDS011;918;50.796;6.772;2023-03-29T07:36:36;4.10;;;3.30;;
1837;SDS011;918;50.796;6.772;2023-03-29T07:39:02;4.20;;;3.70;;
1837;SDS011;918;50.796;6.772;2023-03-29T07:41:28;4.03;;;3.23;;
1837;SDS011;918;50.796;6.772;2023-03-29T07:43:53;6.00;;;3.23;;
1837;SDS011;918;50.796;6.772;2023-03-29T07:46:19;5.10;;;3.30;;
1837;SDS011;918;50.796;6.772;2023-03-29T07:48:45;3.60;;;3.30;;
1837;SDS011;918;50.796;6.772;2023-03-29T07:51:10;5.07;;;3.03;;
1837;SDS011;918;50.796;6.772;2023-03-29T07:53:35;3.50;;;3.07;;
1837;SDS011;918;50.796;6.772;2023-03-29T07:56:01;3.73;;;3.33;;
1837;SDS011;918;50.796;6.772;2023-03-29T07:58:26;3.13;;;2.83;;
1837;SDS011;918;50.796;6.772;2023-03-29T08:00:52;3.90;;;3.40;;
1837;SDS011;918;50.796;6.772;2023-03-29T08:03:17;3.43;;;3.10;;
1837;SDS011;918;50.796;6.772;2023-03-29T08:05:42;3.73;;;3.43;;
1837;SDS011;918;50.796;6.772;2023-03-29T08:08:07;5.30;;;2.90;;
1837;SDS011;918;50.796;6.772;2023-03-29T08:10:34;3.57;;;3.27;;
1837;SDS011;918;50.796;6.772;2023-03-29T08:13:02;4.03;;;2.80;;
1837;SDS011;918;50.796;6.772;2023-03-29T08:15:28;4.40;;;3.10;;
1837;SDS011;918;50.796;6.772;2023-03-29T08:17:53;3.87;;;2.87;;
1837;SDS011;918;50.796;6.772;2023-03-29T08:20:18;4.40;;;3.20;;
1837;SDS011;918;50.796;6.772;2023-03-29T08:22:44;4.23;;;3.83;;
1837;SDS011;918;50.796;6.772;2023-03-29T08:25:09;3.07;;;2.80;;
1837;SDS011;918;50.796;6.772;2023-03-29T08:27:35;3.20;;;2.90;;
1837;SDS011;918;50.796;6.772;2023-03-29T08:30:01;3.23;;;3.03;;
1837;SDS011;918;50.796;6.772;2023-03-29T08:32:28;4.40;;;3.97;;
1837;SDS011;918;50.796;6.772;2023-03-29T08:34:53;5.20;;;3.53;;
1837;SDS011;918;50.796;6.772;2023-03-29T08:37:19;3.17;;;2.93;;
1837;SDS011;918;50.796;6.772;2023-03-29T08:39:44;5.10;;;2.90;;
1837;SDS011;918;50.796;6.772;2023-03-29T08:42:23;5.10;;;3.23;;
1837;SDS011;918;50.796;6.772;2023-03-29T08:47:57;3.33;;;2.90;;
1837;SDS011;918;50.796;6.772;2023-03-29T08:50:31;4.57;;;4.03;;
1837;SDS011;918;50.796;6.772;2023-03-29T08:52:59;3.13;;;2.90;;
1837;SDS011;918;50.796;6.772;2023-03-29T08:55:32;3.07;;;2.87;;
1837;SDS011;918;50.796;6.772;2023-03-29T08:58:07;4.00;;;3.30;;
1837;SDS011;918;50.796;6.772;2023-03-29T09:00:38;4.13;;;3.20;;
1837;SDS011;918;50.796;6.772;2023-03-29T09:03:07;3.40;;;3.00;;
1837;SDS011;918;50.796;6.772;2023-03-29T09:05:36;4.50;;;2.80;;
1837;SDS011;918;50.796;6.772;2023-03-29T09:08:12;3.57;;;2.73;;
1837;SDS011;918;50.796;6.772;2023-03-29T09:18:56;3.47;;;3.20;;
1837;SDS011;918;50.796;6.772;2023-03-29T09:21:43;3.73;;;3.30;;
1837;SDS011;918;50.796;6.772;2023-03-29T09:27:11;4.07;;;2.90;;
1837;SDS011;918;50.796;6.772;2023-03-29T09:30:01;3.43;;;2.63;;
1837;SDS011;918;50.796;6.772;2023-03-29T09:32:38;3.57;;;2.80;;
1837;SDS011;918;50.796;6.772;2023-03-29T09:37:44;4.20;;;3.00;;
1837;SDS011;918;50.796;6.772;2023-03-29T09:40:15;3.17;;;2.83;;
1837;SDS011;918;50.796;6.772;2023-03-29T09:42:42;7.53;;;3.87;;
1837;SDS011;918;50.796;6.772;2023-03-29T09:45:08;5.30;;;3.47;;
1837;SDS011;918;50.796;6.772;2023-03-29T09:47:35;4.10;;;3.17;;
1837;SDS011;918;50.796;6.772;2023-03-29T09:50:05;4.13;;;3.83;;
1837;SDS011;918;50.796;6.772;2023-03-29T09:52:35;3.40;;;3.00;;
1837;SDS011;918;50.796;6.772;2023-03-29T09:55:00;5.43;;;3.07;;
1837;SDS011;918;50.796;6.772;2023-03-29T09:57:27;3.90;;;3.10;;
1837;SDS011;918;50.796;6.772;2023-03-29T09:59:53;3.87;;;3.20;;
1837;SDS011;918;50.796;6.772;2023-03-29T10:02:19;4.73;;;3.07;;
1837;SDS011;918;50.796;6.772;2023-03-29T10:04:51;7.83;;;3.60;;
1837;SDS011;918;50.796;6.772;2023-03-29T10:07:19;4.63;;;3.40;;
1837;SDS011;918;50.796;6.772;2023-03-29T10:09:44;4.63;;;3.60;;
1837;SDS011;918;50.796;6.772;2023-03-29T10:12:10;5.60;;;3.80;;
1837;SDS011;918;50.796;6.772;2023-03-29T10:14:40;6.17;;;3.50;;
1837;SDS011;918;50.796;6.772;2023-03-29T10:17:12;5.63;;;3.23;;
1837;SDS011;918;50.796;6.772;2023-03-29T10:19:45;3.13;;;2.83;;
1837;SDS011;918;50.796;6.772;2023-03-29T10:22:20;4.47;;;2.90;;
1837;SDS011;918;50.796;6.772;2023-03-29T10:24:51;3.90;;;3.30;;
1837;SDS011;918;50.796;6.772;2023-03-29T10:27:18;3.40;;;3.00;;
1837;SDS011;918;50.796;6.772;2023-03-29T10:29:51;7.27;;;3.10;;
1837;SDS011;918;50.796;6.772;2023-03-29T10:32:22;4.20;;;2.80;;
1837;SDS011;918;50.796;6.772;2023-03-29T10:34:58;4.70;;;3.80;;
1837;SDS011;918;50.796;6.772;2023-03-29T10:37:24;3.33;;;3.00;;
1837;SDS011;918;50.796;6.772;2023-03-29T10:39:52;4.23;;;3.53;;
1837;SDS011;918;50.796;6.772;2023-03-29T10:42:18;3.50;;;2.90;;
1837;SDS011;918;50.796;6.772;2023-03-29T10:44:57;2.83;;;2.63;;
1837;SDS011;918;50.796;6.772;2023-03-29T10:47:24;4.87;;;2.70;;
1837;SDS011;918;50.796;6.772;2023-03-29T10:49:51;3.03;;;2.73;;
1837;SDS011;918;50.796;6.772;2023-03-29T10:52:18;4.73;;;3.40;;
1837;SDS011;918;50.796;6.772;2023-03-29T10:54:44;5.93;;;2.97;;
1837;SDS011;918;50.796;6.772;2023-03-29T10:57:11;3.47;;;2.00;;
1837;SDS011;918;50.796;6.772;2023-03-29T11:00:01;3.77;;;2.30;;
1837;SDS011;918;50.796;6.772;2023-03-29T11:21:27;2.90;;;2.70;;
1837;SDS011;918;50.796;6.772;2023-03-29T11:33:25;3.53;;;2.60;;
1837;SDS011;918;50.796;6.772;2023-03-29T11:38:41;5.97;;;2.20;;
1837;SDS011;918;50.796;6.772;2023-03-29T11:41:33;3.20;;;1.87;;
1837;SDS011;918;50.796;6.772;2023-03-29T11:44:15;3.57;;;2.40;;
1837;SDS011;918;50.796;6.772;2023-03-29T11:49:33;2.03;;;1.87;;
1837;SDS011;918;50.796;6.772;2023-03-29T11:52:02;3.30;;;2.23;;
1837;SDS011;918;50.796;6.772;2023-03-29T12:02:32;1.73;;;1.50;;
1837;SDS011;918;50.796;6.772;2023-03-29T12:05:02;2.80;;;1.97;;
1837;SDS011;918;50.796;6.772;2023-03-29T12:07:35;4.00;;;2.40;;
1837;SDS011;918;50.796;6.772;2023-03-29T12:10:07;2.57;;;1.60;;
1837;SDS011;918;50.796;6.772;2023-03-29T12:12:42;1.90;;;1.80;;
1837;SDS011;918;50.796;6.772;2023-03-29T12:15:14;2.77;;;1.53;;
1837;SDS011;918;50.796;6.772;2023-03-29T12:17:45;3.60;;;2.33;;
1837;SDS011;918;50.796;6.772;2023-03-29T12:20:20;1.67;;;1.43;;
1837;SDS011;918;50.796;6.772;2023-03-29T12:22:52;1.90;;;1.60;;
1837;SDS011;918;50.796;6.772;2023-03-29T12:25:33;3.20;;;1.80;;
1837;SDS011;918;50.796;6.772;2023-03-29T12:30:59;1.60;;;1.13;;
1837;SDS011;918;50.796;6.772;2023-03-29T12:36:37;1.83;;;1.30;;
1837;SDS011;918;50.796;6.772;2023-03-29T12:39:16;2.70;;;1.57;;
1837;SDS011;918;50.796;6.772;2023-03-29T12:41:42;3.13;;;2.10;;
1837;SDS011;918;50.796;6.772;2023-03-29T12:44:13;3.40;;;1.67;;
1837;SDS011;918;50.796;6.772;2023-03-29T12:46:39;2.63;;;2.00;;
1837;SDS011;918;50.796;6.772;2023-03-29T12:51:53;1.50;;;1.40;;
1837;SDS011;918;50.796;6.772;2023-03-29T12:54:22;1.97;;;1.73;;
1837;SDS011;918;50.796;6.772;2023-03-29T12:59:26;1.53;;;1.43;;
1837;SDS011;918;50.796;6.772;2023-03-29T13:02:01;1.60;;;1.50;;
1837;SDS011;918;50.796;6.772;2023-03-29T13:04:54;2.50;;;1.67;;
1837;SDS011;918;50.796;6.772;2023-03-29T13:12:24;4.83;;;1.80;;
1837;SDS011;918;50.796;6.772;2023-03-29T13:14:52;3.00;;;2.10;;
1837;SDS011;918;50.796;6.772;2023-03-29T13:20:23;1.50;;;1.40;;
1837;SDS011;918;50.796;6.772;2023-03-29T13:23:29;5.37;;;2.00;;
1837;SDS011;918;50.796;6.772;2023-03-29T13:37:39;2.60;;;2.40;;
1837;SDS011;918;50.796;6.772;2023-03-29T13:43:06;2.40;;;2.20;;
1837;SDS011;918;50.796;6.772;2023-03-29T13:45:34;2.20;;;1.93;;
1837;SDS011;918;50.796;6.772;2023-03-29T13:48:00;2.20;;;2.00;;
1837;SDS011;918;50.796;6.772;2023-03-29T13:50:35;1.70;;;1.60;;
1837;SDS011;918;50.796;6.772;2023-03-29T13:55:59;2.57;;;1.90;;
1837;SDS011;918;50.796;6.772;2023-03-29T14:01:08;1.70;;;1.60;;
1837;SDS011;918;50.796;6.772;2023-03-29T14:03:41;1.80;;;1.70;;
1837;SDS011;918;50.796;6.772;2023-03-29T14:06:09;2.17;;;1.73;;
1837;SDS011;918;50.796;6.772;2023-03-29T14:08:38;2.40;;;1.70;;
1837;SDS011;918;50.796;6.772;2023-03-29T14:11:06;2.37;;;1.93;;
1837;SDS011;918;50.796;6.772;2023-03-29T14:13:32;2.33;;;1.90;;
1837;SDS011;918;50.796;6.772;2023-03-29T14:15:58;3.00;;;1.90;;
1837;SDS011;918;50.796;6.772;2023-03-29T14:18:26;2.37;;;1.80;;
1837;SDS011;918;50.796;6.772;2023-03-29T14:20:57;4.00;;;2.00;;
1837;SDS011;918;50.796;6.772;2023-03-29T14:23:26;2.87;;;2.17;;
1837;SDS011;918;50.796;6.772;2023-03-29T14:25:54;1.73;;;1.63;;
1837;SDS011;918;50.796;6.772;2023-03-29T14:28:29;2.87;;;2.13;;
1837;SDS011;918;50.796;6.772;2023-03-29T14:30:55;2.00;;;1.77;;
1837;SDS011;918;50.796;6.772;2023-03-29T14:33:24;2.40;;;1.93;;
1837;SDS011;918;50.796;6.772;2023-03-29T14:35:51;2.33;;;1.77;;
1837;SDS011;918;50.796;6.772;2023-03-29T14:38:17;2.87;;;1.90;;
1837;SDS011;918;50.796;6.772;2023-03-29T14:40:43;2.73;;;1.93;;
1837;SDS011;918;50.796;6.772;2023-03-29T14:43:10;2.90;;;2.67;;
1837;SDS011;918;50.796;6.772;2023-03-29T14:45:38;3.60;;;2.67;;
1837;SDS011;918;50.796;6.772;2023-03-29T14:48:04;3.77;;;2.60;;
1837;SDS011;918;50.796;6.772;2023-03-29T14:50:30;2.90;;;2.47;;
1837;SDS011;918;50.796;6.772;2023-03-29T14:52:56;3.33;;;1.97;;
1837;SDS011;918;50.796;6.772;2023-03-29T14:55:22;3.07;;;2.77;;
1837;SDS011;918;50.796;6.772;2023-03-29T14:57:49;3.00;;;2.13;;
1837;SDS011;918;50.796;6.772;2023-03-29T15:00:17;3.57;;;2.27;;
1837;SDS011;918;50.796;6.772;2023-03-29T15:02:52;2.90;;;2.37;;
1837;SDS011;918;50.796;6.772;2023-03-29T15:05:24;2.97;;;2.47;;
1837;SDS011;918;50.796;6.772;2023-03-29T15:07:52;2.73;;;2.27;;
1837;SDS011;918;50.796;6.772;2023-03-29T15:10:19;3.80;;;3.50;;
1837;SDS011;918;50.796;6.772;2023-03-29T15:12:45;4.93;;;2.83;;
1837;SDS011;918;50.796;6.772;2023-03-29T15:15:11;2.27;;;2.17;;
1837;SDS011;918;50.796;6.772;2023-03-29T15:17:43;2.20;;;2.10;;
1837;SDS011;918;50.796;6.772;2023-03-29T15:20:31;3.03;;;1.60;;
1837;SDS011;918;50.796;6.772;2023-03-29T15:23:07;2.20;;;1.57;;
1837;SDS011;918;50.796;6.772;2023-03-29T15:25:45;1.70;;;1.50;;
1837;SDS011;918;50.796;6.772;2023-03-29T15:30:55;1.50;;;1.40;;
1837;SDS011;918;50.796;6.772;2023-03-29T15:33:21;1.17;;;1.17;;
1837;SDS011;918;50.796;6.772;2023-03-29T15:35:49;2.43;;;1.50;;
1837;SDS011;918;50.796;6.772;2023-03-29T15:38:16;1.87;;;1.43;;
1837;SDS011;918;50.796;6.772;2023-03-29T15:40:42;2.00;;;1.40;;
1837;SDS011;918;50.796;6.772;2023-03-29T15:43:07;1.43;;;1.10;;
1837;SDS011;918;50.796;6.772;2023-03-29T15:45:32;1.00;;;0.90;;
1837;SDS011;918;50.796;6.772;2023-03-29T15:47:58;4.23;;;1.40;;
1837;SDS011;918;50.796;6.772;2023-03-29T15:50:28;1.53;;;1.00;;
1837;SDS011;918;50.796;6.772;2023-03-29T15:52:54;1.13;;;1.03;;
1837;SDS011;918;50.796;6.772;2023-03-29T15:55:23;1.57;;;1.40;;
1837;SDS011;918;50.796;6.772;2023-03-29T15:57:50;1.40;;;1.10;;
1837;SDS011;918;50.796;6.772;2023-03-29T16:00:17;1.37;;;1.20;;
1837;SDS011;918;50.796;6.772;2023-03-29T16:02:43;1.40;;;1.30;;
1837;SDS011;918;50.796;6.772;2023-03-29T16:05:09;4.03;;;1.80;;
1837;SDS011;918;50.796;6.772;2023-03-29T16:07:34;1.77;;;1.40;;
1837;SDS011;918;50.796;6.772;2023-03-29T16:10:00;2.23;;;2.00;;
1837;SDS011;918;50.796;6.772;2023-03-29T16:12:25;2.00;;;1.90;;
1837;SDS011;918;50.796;6.772;2023-03-29T16:14:51;2.37;;;2.10;;
1837;SDS011;918;50.796;6.772;2023-03-29T16:17:16;3.10;;;2.90;;
1837;SDS011;918;50.796;6.772;2023-03-29T16:19:41;2.30;;;2.10;;
1837;SDS011;918;50.796;6.772;2023-03-29T16:22:07;2.17;;;1.97;;
1837;SDS011;918;50.796;6.772;2023-03-29T16:24:32;2.17;;;1.97;;
1837;SDS011;918;50.796;6.772;2023-03-29T16:26:59;2.30;;;2.10;;
1837;SDS011;918;50.796;6.772;2023-03-29T16:29:25;2.00;;;1.90;;
1837;SDS011;918;50.796;6.772;2023-03-29T16:31:51;2.37;;;2.27;;
1837;SDS011;918;50.796;6.772;2023-03-29T16:34:17;2.87;;;2.10;;
1837;SDS011;918;50.796;6.772;2023-03-29T16:36:44;1.90;;;1.77;;
1837;SDS011;918;50.796;6.772;2023-03-29T16:39:10;4.80;;;2.40;;
1837;SDS011;918;50.796;6.772;2023-03-29T16:41:37;2.40;;;2.20;;
1837;SDS011;918;50.796;6.772;2023-03-29T16:44:02;2.00;;;1.67;;
1837;SDS011;918;50.796;6.772;2023-03-29T16:46:28;1.90;;;1.70;;
1837;SDS011;918;50.796;6.772;2023-03-29T16:48:54;2.47;;;1.77;;
1837;SDS011;918;50.796;6.772;2023-03-29T16:51:21;1.70;;;1.60;;
1837;SDS011;918;50.796;6.772;2023-03-29T16:53:47;2.20;;;2.00;;
1837;SDS011;918;50.796;6.772;2023-03-29T16:56:13;1.50;;;1.40;;
1837;SDS011;918;50.796;6.772;2023-03-29T16:58:38;1.90;;;1.80;;
1837;SDS011;918;50.796;6.772;2023-03-29T17:01:05;2.90;;;2.43;;
1837;SDS011;918;50.796;6.772;2023-03-29T17:03:36;2.07;;;1.40;;
1837;SDS011;918;50.796;6.772;2023-03-29T17:06:02;1.70;;;1.60;;
1837;SDS011;918;50.796;6.772;2023-03-29T17:08:28;2.17;;;1.97;;
1837;SDS011;918;50.796;6.772;2023-03-29T17:10:54;1.90;;;1.80;;
1837;SDS011;918;50.796;6.772;2023-03-29T17:13:19;2.27;;;1.73;;
1837;SDS011;918;50.796;6.772;2023-03-29T17:15:50;1.77;;;1.67;;
1837;SDS011;918;50.796;6.772;2023-03-29T17:18:16;1.80;;;1.70;;
1837;SDS011;918;50.796;6.772;2023-03-29T17:20:42;1.90;;;1.80;;
1837;SDS011;918;50.796;6.772;2023-03-29T17:23:08;1.97;;;1.40;;
1837;SDS011;918;50.796;6.772;2023-03-29T17:25:33;2.50;;;1.67;;
1837;SDS011;918;50.796;6.772;2023-03-29T17:27:58;3.03;;;2.20;;
1837;SDS011;918;50.796;6.772;2023-03-29T17:30:24;2.07;;;1.87;;